Time;durP1;ratioP1;P1;durP2;ratioP2;P2;SDS_P1;SDS_P2;PMS_P1;PMS_P2;Temp;Humidity;BMP_temperature;BMP_pressure;BME280_temperature;BME280_humidity;BME280_pressure;Samples;Min_cycle;Max_cycle;Signal;HPM_P1;HPM_P2
2022/11/10 00:00:02;;;;;;;;;;;;;;;15.45;73.28;102260.09;5075058;28;19912;-86
2022/11/10 00:02:28;;;;;;;;;;;;;;;15.39;73.52;102251.84;5070847;28;19966;-87
2022/11/10 00:04:53;;;;;;;;;;;;;;;15.39;73.52;102250.13;5082370;28;19913;-87
2022/11/10 00:07:21;;;;;;;;;;;;;;;15.40;73.47;102251.03;5071128;28;20563;-87
2022/11/10 00:09:46;;;;;;;;;;;;;;;15.42;73.23;102257.28;5059164;28;20443;-87
2022/11/10 00:12:12;;;;;;;;;;;;;;;15.41;73.16;102248.50;5075086;28;19912;-87
2022/11/10 00:17:23;;;;;;;;;;;;;;;15.40;73.12;102244.03;5061277;28;19951;-87
2022/11/10 00:19:48;;;;;;;;;;;;;;;15.36;73.24;102247.28;5067026;28;19912;-87
2022/11/10 00:22:14;;;;;;;;;;;;;;;15.36;73.32;102243.75;5053513;28;20427;-86
2022/11/10 00:24:39;;;;;;;;;;;;;;;15.34;73.29;102246.31;5078553;28;20305;-86
2022/11/10 00:27:05;;;;;;;;;;;;;;;15.37;73.23;102245.59;5068533;28;19912;-88
2022/11/10 00:29:30;;;;;;;;;;;;;;;15.36;73.09;102242.03;5071078;28;20382;-86
2022/11/10 00:31:56;;;;;;;;;;;;;;;15.32;73.23;102237.41;5067593;28;20301;-86
2022/11/10 00:34:23;;;;;;;;;;;;;;;15.33;73.04;102244.50;5066867;28;20373;-86
2022/11/10 00:36:49;;;;;;;;;;;;;;;15.33;73.18;102235.72;5070666;28;19916;-88
2022/11/10 00:39:14;;;;;;;;;;;;;;;15.32;73.24;102233.88;5056934;28;19935;-88
2022/11/10 00:41:40;;;;;;;;;;;;;;;15.34;73.04;102233.13;5065527;28;20382;-88
2022/11/10 00:44:05;;;;;;;;;;;;;;;15.27;73.13;102226.63;5063913;28;19913;-88
2022/11/10 00:46:31;;;;;;;;;;;;;;;15.32;72.88;102223.34;5078283;28;20293;-88
2022/11/10 00:48:56;;;;;;;;;;;;;;;15.25;73.19;102222.97;5066762;28;20317;-88
2022/11/10 00:51:26;;;;;;;;;;;;;;;15.21;73.26;102228.88;5070195;28;20370;-89
2022/11/10 00:53:52;;;;;;;;;;;;;;;15.27;72.83;102223.97;5055004;28;19919;-89
2022/11/10 00:56:17;;;;;;;;;;;;;;;15.26;72.88;102223.88;5081092;28;19930;-88
2022/11/10 00:58:43;;;;;;;;;;;;;;;15.26;72.75;102224.81;5069610;28;19919;-88
2022/11/10 01:01:10;;;;;;;;;;;;;;;15.28;72.66;102222.25;5069774;28;20386;-89
2022/11/10 01:03:35;;;;;;;;;;;;;;;15.25;72.71;102224.72;5066446;28;19958;-89
2022/11/10 01:06:04;;;;;;;;;;;;;;;15.24;72.64;102221.19;5070163;28;20366;-88
2022/11/10 01:08:30;;;;;;;;;;;;;;;15.19;72.87;102214.72;5059704;28;19921;-89
2022/11/10 01:11:09;;;;;;;;;;;;;;;15.15;73.09;102212.72;5070024;28;19912;-88
2022/11/10 01:13:34;;;;;;;;;;;;;;;15.16;72.81;102208.41;5066982;28;20325;-88
2022/11/10 01:16:07;;;;;;;;;;;;;;;15.13;72.98;102209.09;5049244;28;19913;-88
2022/11/10 01:18:32;;;;;;;;;;;;;;;15.11;73.19;102212.47;5067930;28;19913;-88
2022/11/10 01:20:58;;;;;;;;;;;;;;;15.10;73.14;102215.94;5081891;28;19969;-88
2022/11/10 01:23:23;;;;;;;;;;;;;;;15.08;73.11;102207.94;5070764;28;20246;-88
2022/11/10 01:25:48;;;;;;;;;;;;;;;15.11;72.96;102215.09;5075372;28;20401;-88
2022/11/10 01:28:14;;;;;;;;;;;;;;;15.11;72.99;102209.84;5085833;28;20351;-86
2022/11/10 01:30:39;;;;;;;;;;;;;;;15.08;73.30;102215.84;5073428;28;19912;-86
2022/11/10 01:33:05;;;;;;;;;;;;;;;15.04;73.28;102214.75;5066359;28;19913;-86
2022/11/10 01:35:30;;;;;;;;;;;;;;;15.08;72.96;102210.56;5071573;28;20435;-86
2022/11/10 01:37:56;;;;;;;;;;;;;;;15.02;73.14;102211.09;5060017;28;19965;-88
2022/11/10 01:40:21;;;;;;;;;;;;;;;15.00;73.26;102215.38;5076509;28;20308;-87
2022/11/10 01:42:51;;;;;;;;;;;;;;;14.95;73.48;102208.94;5067938;28;19913;-88
2022/11/10 01:45:24;;;;;;;;;;;;;;;15.05;73.03;102213.03;5078000;28;19917;-86
2022/11/10 01:47:50;;;;;;;;;;;;;;;15.03;72.85;102209.41;5070858;28;19912;-88
2022/11/10 01:50:15;;;;;;;;;;;;;;;14.98;73.14;102208.22;5058801;28;19978;-88
2022/11/10 01:52:42;;;;;;;;;;;;;;;14.99;73.12;102215.31;5069743;28;19913;-88
2022/11/10 01:55:07;;;;;;;;;;;;;;;15.01;72.83;102208.41;5069647;28;19908;-88
2022/11/10 01:57:33;;;;;;;;;;;;;;;14.95;73.00;102211.56;5062709;28;19999;-88
2022/11/10 01:59:58;;;;;;;;;;;;;;;14.99;73.05;102210.03;5083791;28;19912;-87
2022/11/10 02:02:26;;;;;;;;;;;;;;;14.93;73.02;102214.94;5077228;28;20339;-87
2022/11/10 02:04:52;;;;;;;;;;;;;;;14.93;73.22;102207.06;5063898;28;19934;-88
2022/11/10 02:07:17;;;;;;;;;;;;;;;14.91;73.10;102212.22;5056206;28;20310;-88
2022/11/10 02:09:43;;;;;;;;;;;;;;;14.91;72.94;102206.06;5083193;28;19992;-88
2022/11/10 02:12:08;;;;;;;;;;;;;;;14.91;72.84;102214.84;5073807;28;19912;-89
2022/11/10 02:14:33;;;;;;;;;;;;;;;14.94;72.72;102208.84;5069313;28;20385;-89
2022/11/10 02:16:59;;;;;;;;;;;;;;;14.93;72.78;102204.41;5075032;28;20460;-88
2022/11/10 02:19:25;;;;;;;;;;;;;;;14.93;72.74;102201.78;5077938;28;19938;-87
2022/11/10 02:21:51;;;;;;;;;;;;;;;14.96;72.46;102204.59;5085144;28;20009;-88
2022/11/10 02:24:16;;;;;;;;;;;;;;;14.90;72.70;102205.16;5058518;28;19974;-88
2022/11/10 02:26:54;;;;;;;;;;;;;;;14.86;72.79;102206.69;5052696;28;20058;-88
2022/11/10 02:29:20;;;;;;;;;;;;;;;14.90;72.75;102209.47;5071294;28;20387;-88
2022/11/10 02:31:45;;;;;;;;;;;;;;;14.83;72.84;102205.59;5064966;28;19919;-88
2022/11/10 02:34:11;;;;;;;;;;;;;;;14.91;72.76;102213.94;5075729;28;19912;-89
2022/11/10 02:36:36;;;;;;;;;;;;;;;14.89;72.65;102208.56;5076295;28;19914;-86
2022/11/10 02:39:01;;;;;;;;;;;;;;;14.91;72.49;102204.31;5063450;28;19912;-89
2022/11/10 02:41:27;;;;;;;;;;;;;;;14.85;72.58;102210.09;5082004;28;20479;-89
2022/11/10 02:43:52;;;;;;;;;;;;;;;14.86;72.50;102206.69;5072648;28;19909;-89
2022/11/10 02:46:18;;;;;;;;;;;;;;;14.83;72.61;102206.47;5074857;28;19913;-88
2022/11/10 02:48:43;;;;;;;;;;;;;;;14.86;72.51;102214.56;5074812;28;20332;-88
2022/11/10 02:51:09;;;;;;;;;;;;;;;14.83;72.55;102218.72;5073382;28;20421;-88
2022/11/10 02:53:35;;;;;;;;;;;;;;;14.89;72.31;102219.09;5077663;28;19961;-90
2022/11/10 02:56:00;;;;;;;;;;;;;;;14.84;72.45;102218.84;5065133;28;19915;-91
2022/11/10 02:58:26;;;;;;;;;;;;;;;14.79;72.59;102217.63;5073049;28;19912;-88
2022/11/10 03:00:53;;;;;;;;;;;;;;;14.83;72.40;102222.25;5079487;28;19912;-88
2022/11/10 03:03:19;;;;;;;;;;;;;;;14.86;72.27;102217.19;5070453;28;19920;-89
2022/11/10 03:05:44;;;;;;;;;;;;;;;14.82;72.45;102216.94;5088653;28;19908;-88
2022/11/10 03:08:09;;;;;;;;;;;;;;;14.83;72.25;102222.25;5073119;28;19939;-87
2022/11/10 03:10:35;;;;;;;;;;;;;;;14.81;72.31;102229.16;5064115;28;19916;-87
2022/11/10 03:13:02;;;;;;;;;;;;;;;14.78;72.59;102225.44;5070278;28;19931;-87
2022/11/10 03:15:28;;;;;;;;;;;;;;;14.79;72.31;102224.63;5083148;28;20015;-87
2022/11/10 03:17:53;;;;;;;;;;;;;;;14.73;72.48;102229.50;5055465;28;20459;-89
2022/11/10 03:20:19;;;;;;;;;;;;;;;14.74;72.66;102226.09;5072456;28;19955;-89
2022/11/10 03:22:45;;;;;;;;;;;;;;;14.76;72.55;102227.09;5072625;28;19909;-89
2022/11/10 03:25:13;;;;;;;;;;;;;;;14.76;72.20;102230.59;5057643;28;20310;-87
2022/11/10 03:27:38;;;;;;;;;;;;;;;14.76;72.33;102227.97;5059238;28;19920;-89
2022/11/10 03:30:04;;;;;;;;;;;;;;;14.77;72.35;102229.78;5050278;28;20340;-90
2022/11/10 03:32:32;;;;;;;;;;;;;;;14.77;72.14;102231.50;5071181;28;20385;-88
2022/11/10 03:34:58;;;;;;;;;;;;;;;14.71;72.43;102225.88;5080883;28;19995;-87
2022/11/10 03:37:23;;;;;;;;;;;;;;;14.73;72.17;102230.44;5067352;28;19908;-87
2022/11/10 03:39:49;;;;;;;;;;;;;;;14.73;71.99;102232.13;5085887;28;20404;-89
2022/11/10 03:42:16;;;;;;;;;;;;;;;14.68;72.30;102223.97;5077771;28;20289;-90
2022/11/10 03:44:44;;;;;;;;;;;;;;;14.75;71.94;102228.81;5069373;28;19957;-90
2022/11/10 03:47:09;;;;;;;;;;;;;;;14.72;72.26;102233.88;5084917;28;20007;-89
2022/11/10 03:49:34;;;;;;;;;;;;;;;14.77;72.00;102229.78;5057881;28;20457;-89
2022/11/10 03:52:01;;;;;;;;;;;;;;;14.72;72.21;102232.97;5067581;28;19997;-89
2022/11/10 03:54:27;;;;;;;;;;;;;;;14.72;72.03;102225.06;5087592;28;19999;-89
2022/11/10 03:56:53;;;;;;;;;;;;;;;14.72;72.02;102235.59;5064011;28;19947;-89
2022/11/10 03:59:18;;;;;;;;;;;;;;;14.75;71.95;102235.78;5066147;28;19943;-87
2022/11/10 04:01:45;;;;;;;;;;;;;;;14.72;71.84;102239.13;5066960;28;19912;-88
2022/11/10 04:09:38;;;;;;;;;;;;;;;14.67;72.03;102232.69;5070139;28;20413;-88
2022/11/10 04:17:31;;;;;;;;;;;;;;;14.69;72.00;102243.28;5069848;28;20387;-89
2022/11/10 04:19:57;;;;;;;;;;;;;;;14.65;71.98;102239.59;5054772;28;19908;-90
2022/11/10 04:25:06;;;;;;;;;;;;;;;14.66;71.78;102234.38;5071989;28;20025;-88
2022/11/10 04:27:32;;;;;;;;;;;;;;;14.68;71.69;102241.47;5066803;28;19942;-87
2022/11/10 04:29:57;;;;;;;;;;;;;;;14.64;71.86;102241.28;5048677;28;19971;-86
2022/11/10 04:32:22;;;;;;;;;;;;;;;14.66;71.81;102237.03;5065388;28;20423;-86
2022/11/10 04:34:48;;;;;;;;;;;;;;;14.71;71.68;102241.66;5070012;28;19912;-86
2022/11/10 04:37:13;;;;;;;;;;;;;;;14.70;71.68;102245.13;5070118;28;20447;-87
2022/11/10 04:39:39;;;;;;;;;;;;;;;14.68;71.64;102244.09;5060457;28;19912;-85
2022/11/10 04:42:04;;;;;;;;;;;;;;;14.63;71.67;102254.34;5069094;28;19912;-87
2022/11/10 04:44:29;;;;;;;;;;;;;;;14.61;71.70;102245.47;5053819;28;19956;-87
2022/11/10 04:46:55;;;;;;;;;;;;;;;14.61;71.98;102255.97;5064076;28;19932;-88
2022/11/10 04:49:20;;;;;;;;;;;;;;;14.58;71.71;102251.44;5066291;28;20400;-86
2022/11/10 04:51:46;;;;;;;;;;;;;;;14.59;71.71;102244.47;5070303;28;19919;-88
2022/11/10 04:54:11;;;;;;;;;;;;;;;14.63;71.52;102247.38;5053504;28;20366;-88
2022/11/10 04:56:37;;;;;;;;;;;;;;;14.58;71.68;102248.81;5053228;28;19924;-88
2022/11/10 04:59:02;;;;;;;;;;;;;;;14.57;71.72;102254.88;5070736;28;20300;-88
2022/11/10 05:01:27;;;;;;;;;;;;;;;14.56;71.92;102260.03;5063462;28;20275;-88
2022/11/10 05:03:53;;;;;;;;;;;;;;;14.56;71.65;102258.34;5053769;28;20503;-86
2022/11/10 05:06:19;;;;;;;;;;;;;;;14.53;71.73;102260.72;5060410;28;20382;-86
2022/11/10 05:08:44;;;;;;;;;;;;;;;14.53;71.70;102257.19;5070218;28;19997;-86
2022/11/10 05:11:10;;;;;;;;;;;;;;;14.52;71.82;102258.00;5053478;28;19912;-86
2022/11/10 05:13:36;;;;;;;;;;;;;;;14.54;71.52;102269.50;5083834;28;19987;-86
2022/11/10 05:16:01;;;;;;;;;;;;;;;14.52;71.57;102265.88;5067301;28;19916;-87
2022/11/10 05:18:27;;;;;;;;;;;;;;;14.49;71.67;102261.34;5064010;28;19908;-89
2022/11/10 05:20:52;;;;;;;;;;;;;;;14.53;71.60;102268.59;5049391;28;19919;-85
2022/11/10 05:26:04;;;;;;;;;;;;;;;14.53;71.67;102272.97;5070269;28;19935;-88
2022/11/10 05:28:29;;;;;;;;;;;;;;;14.52;71.46;102279.94;5067401;28;19927;-87
2022/11/10 05:30:55;;;;;;;;;;;;;;;14.53;71.61;102284.38;5064194;28;19912;-85
2022/11/10 05:33:20;;;;;;;;;;;;;;;14.52;71.62;102293.09;5069351;28;20211;-86
2022/11/10 05:35:47;;;;;;;;;;;;;;;14.48;71.38;102292.78;5086558;28;20447;-86
2022/11/10 05:38:12;;;;;;;;;;;;;;;14.49;71.43;102294.63;5067877;28;19919;-87
2022/11/10 05:40:38;;;;;;;;;;;;;;;14.48;71.70;102296.34;5084319;28;19912;-87
2022/11/10 05:43:03;;;;;;;;;;;;;;;14.50;71.28;102299.03;5076863;28;20428;-87
2022/11/10 05:45:29;;;;;;;;;;;;;;;14.49;71.23;102302.50;5069760;28;20146;-86
2022/11/10 05:47:54;;;;;;;;;;;;;;;14.50;71.35;102304.31;5080855;28;20373;-87
2022/11/10 05:50:20;;;;;;;;;;;;;;;14.49;71.27;102313.00;5052524;28;19920;-86
2022/11/10 05:52:49;;;;;;;;;;;;;;;14.52;71.14;102314.13;5063987;28;19912;-87
2022/11/10 05:55:16;;;;;;;;;;;;;;;14.55;71.12;102323.91;5051593;28;19912;-88
2022/11/10 05:57:42;;;;;;;;;;;;;;;14.43;71.57;102321.41;5069158;28;19908;-88
2022/11/10 06:00:08;;;;;;;;;;;;;;;14.38;71.51;102328.13;5085122;28;19912;-88
2022/11/10 06:02:34;;;;;;;;;;;;;;;14.38;71.66;102330.75;5066923;28;19970;-87
2022/11/10 06:04:59;;;;;;;;;;;;;;;14.42;71.44;102327.50;5051796;28;19912;-86
2022/11/10 06:07:24;;;;;;;;;;;;;;;14.39;71.44;102332.53;5063010;28;20401;-87
2022/11/10 06:09:50;;;;;;;;;;;;;;;14.43;71.20;102337.19;5050797;28;20389;-86
2022/11/10 06:12:15;;;;;;;;;;;;;;;14.34;71.44;102337.50;5070526;28;19912;-86
2022/11/10 06:14:41;;;;;;;;;;;;;;;14.37;71.61;102336.78;5069513;28;20371;-86
2022/11/10 06:17:06;;;;;;;;;;;;;;;14.27;71.89;102343.19;5070583;28;20343;-87
2022/11/10 06:19:31;;;;;;;;;;;;;;;14.35;71.62;102341.03;5053610;28;20427;-86
2022/11/10 06:21:57;;;;;;;;;;;;;;;14.29;71.62;102341.56;5070357;28;19919;-86
2022/11/10 06:24:22;;;;;;;;;;;;;;;14.28;71.82;102346.72;5076209;28;19923;-86
2022/11/10 06:26:48;;;;;;;;;;;;;;;14.29;71.76;102345.91;5053583;28;19909;-87
2022/11/10 06:29:13;;;;;;;;;;;;;;;14.37;71.63;102348.25;5060753;28;19913;-87
2022/11/10 06:31:39;;;;;;;;;;;;;;;14.28;71.70;102347.63;5077532;28;20370;-87
2022/11/10 06:34:04;;;;;;;;;;;;;;;14.26;71.76;102359.75;5065451;28;19963;-88
2022/11/10 06:36:30;;;;;;;;;;;;;;;14.21;72.21;102351.59;5078123;28;19946;-86
2022/11/10 06:38:55;;;;;;;;;;;;;;;14.21;72.09;102356.84;5066087;28;19912;-86
2022/11/10 06:41:20;;;;;;;;;;;;;;;14.25;72.27;102358.84;5054126;28;19908;-85
2022/11/10 06:43:49;;;;;;;;;;;;;;;14.19;72.31;102361.09;5061390;28;20417;-86
2022/11/10 06:46:14;;;;;;;;;;;;;;;14.19;72.17;102363.72;5073187;28;20011;-86
2022/11/10 06:48:40;;;;;;;;;;;;;;;14.24;72.07;102353.50;5072033;28;20371;-85
2022/11/10 06:51:05;;;;;;;;;;;;;;;14.18;72.39;102355.72;5071715;28;19935;-85
2022/11/10 06:53:31;;;;;;;;;;;;;;;14.17;72.28;102360.06;5059873;28;19915;-87
2022/11/10 06:55:56;;;;;;;;;;;;;;;14.16;72.46;102360.91;5057677;28;20309;-86
2022/11/10 06:58:21;;;;;;;;;;;;;;;14.16;72.51;102362.59;5069989;28;19919;-87
2022/11/10 07:00:47;;;;;;;;;;;;;;;14.24;72.19;102367.56;5069450;28;20439;-87
2022/11/10 07:03:13;;;;;;;;;;;;;;;14.21;72.21;102369.97;5060349;28;19920;-87
2022/11/10 07:05:38;;;;;;;;;;;;;;;14.18;72.42;102366.22;5067811;28;20360;-87
2022/11/10 07:08:08;;;;;;;;;;;;;;;14.14;72.63;102364.22;5068978;28;19924;-85
2022/11/10 07:10:34;;;;;;;;;;;;;;;14.13;72.81;102360.69;5072271;28;20322;-86
2022/11/10 07:13:01;;;;;;;;;;;;;;;14.15;72.57;102360.78;5069048;28;19923;-86
2022/11/10 07:15:26;;;;;;;;;;;;;;;14.14;72.87;102365.16;5070548;28;19909;-85
2022/11/10 07:17:52;;;;;;;;;;;;;;;14.15;72.65;102366.94;5069414;28;19909;-84
2022/11/10 07:20:17;;;;;;;;;;;;;;;14.23;72.29;102367.47;5054451;28;19912;-85
2022/11/10 07:22:43;;;;;;;;;;;;;;;14.16;72.59;102365.22;5067637;28;20402;-85
2022/11/10 07:25:08;;;;;;;;;;;;;;;14.14;72.97;102364.22;5069537;28;20366;-86
2022/11/10 07:27:34;;;;;;;;;;;;;;;14.21;72.51;102367.34;5084834;28;19912;-86
2022/11/10 07:29:59;;;;;;;;;;;;;;;14.24;72.36;102369.25;5070206;28;19916;-87
2022/11/10 07:32:24;;;;;;;;;;;;;;;14.22;72.65;102370.88;5071873;28;20387;-86
2022/11/10 07:34:50;;;;;;;;;;;;;;;14.30;72.00;102377.53;5071234;28;20308;-86
2022/11/10 07:37:15;;;;;;;;;;;;;;;14.29;72.43;102377.44;5077736;28;19912;-87
2022/11/10 07:39:41;;;;;;;;;;;;;;;14.30;72.28;102374.00;5080751;28;20370;-86
2022/11/10 07:42:06;;;;;;;;;;;;;;;14.31;72.15;102379.38;5072152;28;19961;-87
2022/11/10 07:44:31;;;;;;;;;;;;;;;14.31;72.19;102381.06;5055095;28;19909;-86
2022/11/10 07:46:57;;;;;;;;;;;;;;;14.29;72.35;102372.19;5071296;28;20389;-86
2022/11/10 07:49:22;;;;;;;;;;;;;;;14.29;72.36;102380.06;5073266;28;20017;-87
2022/11/10 07:51:48;;;;;;;;;;;;;;;14.29;72.50;102380.06;5071244;28;19923;-87
2022/11/10 07:54:13;;;;;;;;;;;;;;;14.31;72.41;102374.13;5070690;28;19919;-87
2022/11/10 07:56:39;;;;;;;;;;;;;;;14.32;72.42;102373.28;5056459;28;19935;-86
2022/11/10 07:59:04;;;;;;;;;;;;;;;14.34;72.59;102378.66;5068534;28;19909;-86
2022/11/10 08:01:32;;;;;;;;;;;;;;;14.34;72.48;102376.03;5056665;28;19916;-89
2022/11/10 08:04:02;;;;;;;;;;;;;;;14.33;72.60;102375.13;5057018;28;19931;-91
2022/11/10 08:06:30;;;;;;;;;;;;;;;14.36;72.37;102372.69;5071991;28;19920;-93
2022/11/10 08:08:56;;;;;;;;;;;;;;;14.36;72.65;102377.03;5072538;28;19916;-91
2022/11/10 08:11:22;;;;;;;;;;;;;;;14.38;72.29;102375.41;5066495;28;20347;-91
2022/11/10 08:13:48;;;;;;;;;;;;;;;14.37;72.56;102376.22;5038205;28;19991;-89
2022/11/10 08:16:15;;;;;;;;;;;;;;;14.34;72.72;102382.19;5071980;28;20002;-90
2022/11/10 08:18:43;;;;;;;;;;;;;;;14.41;72.36;102383.50;5073153;28;19916;-91
2022/11/10 08:21:08;;;;;;;;;;;;;;;14.39;72.58;102382.47;5054068;28;19931;-91
2022/11/10 08:23:34;;;;;;;;;;;;;;;14.42;72.12;102385.31;5061194;28;22121;-92
2022/11/10 08:26:00;;;;;;;;;;;;;;;14.41;72.66;102386.13;5052601;28;19939;-91
2022/11/10 08:28:26;;;;;;;;;;;;;;;14.42;72.59;102378.34;5066512;28;19920;-88
2022/11/10 08:30:52;;;;;;;;;;;;;;;14.45;72.20;102378.53;5079273;28;19999;-89
2022/11/10 08:33:20;;;;;;;;;;;;;;;14.38;72.69;102383.31;5066175;28;20442;-90
2022/11/10 08:35:47;;;;;;;;;;;;;;;14.41;72.74;102378.22;5051829;28;19909;-90
2022/11/10 08:38:20;;;;;;;;;;;;;;;14.47;72.40;102381.25;5054849;28;19912;-90
2022/11/10 08:40:46;;;;;;;;;;;;;;;14.48;72.42;102385.72;5068934;28;19919;-90
2022/11/10 08:43:13;;;;;;;;;;;;;;;14.45;72.43;102382.88;5075835;28;19940;-89
2022/11/10 08:45:41;;;;;;;;;;;;;;;14.44;72.74;102383.69;5091022;28;19908;-90
2022/11/10 08:48:10;;;;;;;;;;;;;;;14.57;72.14;102382.78;5055777;28;19962;-90
2022/11/10 08:50:36;;;;;;;;;;;;;;;14.42;72.77;102380.06;5072970;28;19915;-90
2022/11/10 08:53:03;;;;;;;;;;;;;;;14.46;72.63;102379.47;5071271;28;19916;-90
2022/11/10 08:55:28;;;;;;;;;;;;;;;14.45;72.66;102373.25;5085110;28;19923;-90
2022/11/10 08:57:56;;;;;;;;;;;;;;;14.44;72.75;102373.19;5072993;28;19913;-89
2022/11/10 09:00:24;;;;;;;;;;;;;;;14.43;72.94;102376.59;5071424;28;20424;-90
2022/11/10 09:02:50;;;;;;;;;;;;;;;14.38;73.24;102375.41;5071688;28;19908;-90
2022/11/10 09:05:22;;;;;;;;;;;;;;;14.44;72.94;102376.72;5071173;28;19913;-91
2022/11/10 09:07:48;;;;;;;;;;;;;;;14.45;72.94;102375.88;5053979;28;19920;-90
2022/11/10 09:10:15;;;;;;;;;;;;;;;14.48;72.78;102382.16;5071345;28;20289;-90
2022/11/10 09:12:44;;;;;;;;;;;;;;;14.44;72.96;102378.44;5062981;28;19912;-89
2022/11/10 09:15:12;;;;;;;;;;;;;;;14.42;72.93;102375.72;5069403;28;19908;-91
2022/11/10 09:17:45;;;;;;;;;;;;;;;14.38;73.22;102381.56;5086461;28;19908;-90
2022/11/10 09:20:12;;;;;;;;;;;;;;;14.51;72.91;102385.00;5051397;28;19920;-90
2022/11/10 09:22:37;;;;;;;;;;;;;;;14.50;72.66;102378.84;5070423;28;19915;-90
2022/11/10 09:25:04;;;;;;;;;;;;;;;14.46;72.89;102382.09;5051319;28;19908;-91
2022/11/10 09:27:36;;;;;;;;;;;;;;;14.48;73.00;102383.09;5054248;28;19916;-91
2022/11/10 09:30:05;;;;;;;;;;;;;;;14.49;72.75;102379.63;5071527;28;19965;-90
2022/11/10 09:32:32;;;;;;;;;;;;;;;14.44;72.93;102381.97;5078793;28;19999;-91
2022/11/10 09:34:58;;;;;;;;;;;;;;;14.50;72.83;102377.91;5059115;28;19908;-91
2022/11/10 09:37:24;;;;;;;;;;;;;;;14.44;73.08;102375.81;5068832;28;19982;-90
2022/11/10 09:39:49;;;;;;;;;;;;;;;14.48;73.15;102374.28;5059723;28;20385;-91
2022/11/10 09:42:40;;;;;;;;;;;;;;;14.41;73.12;102384.41;5067702;28;19924;-91
2022/11/10 09:45:11;;;;;;;;;;;;;;;14.40;73.43;102379.06;5051429;28;19995;-90
2022/11/10 09:47:44;;;;;;;;;;;;;;;14.44;73.24;102383.69;5071057;28;19908;-90
2022/11/10 09:50:13;;;;;;;;;;;;;;;14.41;73.22;102379.16;5070788;28;19919;-90
2022/11/10 09:52:38;;;;;;;;;;;;;;;14.44;73.13;102379.34;5071015;28;19908;-90
2022/11/10 09:55:11;;;;;;;;;;;;;;;14.47;73.02;102381.25;5053946;28;20408;-89
2022/11/10 09:57:38;;;;;;;;;;;;;;;14.42;73.25;102382.69;5070738;28;19909;-90
2022/11/10 10:00:04;;;;;;;;;;;;;;;14.50;72.94;102378.84;5053828;28;19909;-89
2022/11/10 10:02:37;;;;;;;;;;;;;;;14.40;73.28;102377.34;5070449;28;19912;-89
2022/11/10 10:07:59;;;;;;;;;;;;;;;14.47;73.09;102370.75;5060700;28;19988;-90
2022/11/10 10:10:45;;;;;;;;;;;;;;;14.42;73.53;102373.09;5070151;28;19928;-90
2022/11/10 10:13:31;;;;;;;;;;;;;;;14.43;73.42;102371.34;5064553;28;20390;-90
2022/11/10 10:16:02;;;;;;;;;;;;;;;14.74;71.88;102374.25;5058906;28;19915;-89
2022/11/10 10:18:30;;;;;;;;;;;;;;;14.60;72.81;102365.47;5058318;28;20279;-87
2022/11/10 10:20:56;;;;;;;;;;;;;;;14.56;72.78;102363.50;5073888;28;19908;-88
2022/11/10 10:23:21;;;;;;;;;;;;;;;14.62;72.96;102358.59;5065070;28;19916;-88
2022/11/10 10:25:47;;;;;;;;;;;;;;;14.59;72.95;102361.03;5060870;28;19962;-88
2022/11/10 10:28:12;;;;;;;;;;;;;;;14.59;73.27;102361.03;5059992;28;19991;-88
2022/11/10 10:30:38;;;;;;;;;;;;;;;14.58;73.02;102356.63;5062593;28;20296;-88
2022/11/10 10:33:17;;;;;;;;;;;;;;;14.60;73.17;102356.69;5071575;28;20365;-88
2022/11/10 10:35:43;;;;;;;;;;;;;;;14.62;72.89;102350.69;5050398;28;20344;-88
2022/11/10 10:38:15;;;;;;;;;;;;;;;14.64;72.71;102349.06;5072552;28;19912;-88
2022/11/10 10:40:41;;;;;;;;;;;;;;;14.62;72.81;102349.81;5057963;28;19913;-88
2022/11/10 10:43:06;;;;;;;;;;;;;;;14.62;73.06;102336.66;5072967;28;19931;-88
2022/11/10 10:45:31;;;;;;;;;;;;;;;14.59;73.17;102342.63;5064539;28;20369;-88
2022/11/10 10:47:57;;;;;;;;;;;;;;;14.63;73.04;102346.38;5072872;28;20298;-88
2022/11/10 10:50:35;;;;;;;;;;;;;;;14.64;72.90;102338.56;5055758;28;19920;-88
2022/11/10 10:53:17;;;;;;;;;;;;;;;14.62;72.96;102337.56;5064486;28;20007;-88
2022/11/10 10:56:04;;;;;;;;;;;;;;;14.64;72.89;102340.28;5070120;28;19909;-88
2022/11/10 10:58:32;;;;;;;;;;;;;;;14.61;73.08;102338.38;5057909;28;19955;-88
2022/11/10 11:01:04;;;;;;;;;;;;;;;14.65;72.88;102332.50;5055903;28;19912;-89
2022/11/10 11:03:46;;;;;;;;;;;;;;;14.67;72.75;102340.50;5077568;28;19913;-88
2022/11/10 11:06:14;;;;;;;;;;;;;;;14.69;72.68;102333.63;5061884;28;20328;-91
2022/11/10 11:08:58;;;;;;;;;;;;;;;14.72;72.67;102335.53;5071600;28;20017;-90
2022/11/10 11:11:32;;;;;;;;;;;;;;;14.66;72.75;102331.69;5061300;28;20012;-89
2022/11/10 11:14:18;;;;;;;;;;;;;;;14.65;72.91;102340.41;5078908;28;20389;-90
2022/11/10 11:16:48;;;;;;;;;;;;;;;14.65;73.04;102332.50;5071907;28;19916;-91
2022/11/10 11:19:14;;;;;;;;;;;;;;;14.68;72.96;102330.88;5086606;28;20373;-90
2022/11/10 11:22:02;;;;;;;;;;;;;;;14.83;72.04;102338.00;5070586;28;19916;-90
2022/11/10 11:24:39;;;;;;;;;;;;;;;14.92;71.66;102327.16;5040154;28;19912;-88
2022/11/10 11:27:05;;;;;;;;;;;;;;;14.84;72.03;102329.31;5083626;28;20508;-88
2022/11/10 11:29:39;;;;;;;;;;;;;;;14.77;72.40;102331.44;5071280;28;20389;-89
2022/11/10 11:32:16;;;;;;;;;;;;;;;14.66;72.82;102329.06;5083609;28;20462;-89
2022/11/10 11:35:00;;;;;;;;;;;;;;;14.70;72.70;102331.88;5069968;28;20523;-89
2022/11/10 11:37:39;;;;;;;;;;;;;;;14.68;72.83;102334.41;5058833;28;20002;-89
2022/11/10 11:40:13;;;;;;;;;;;;;;;14.68;73.10;102334.41;5089407;28;19908;-88
2022/11/10 11:42:44;;;;;;;;;;;;;;;14.74;72.86;102331.28;5072348;28;19912;-89
2022/11/10 11:45:19;;;;;;;;;;;;;;;14.69;73.10;102331.00;5069220;28;19912;-89
2022/11/10 11:47:44;;;;;;;;;;;;;;;14.70;72.98;102324.00;5066709;28;19920;-89
2022/11/10 11:50:17;;;;;;;;;;;;;;;14.78;72.57;102330.66;5067911;28;20368;-89
2022/11/10 11:52:49;;;;;;;;;;;;;;;14.75;72.75;102333.06;5072363;28;19912;-89
2022/11/10 11:55:30;;;;;;;;;;;;;;;14.74;72.99;102339.16;5072433;28;20313;-88
2022/11/10 11:58:04;;;;;;;;;;;;;;;14.78;72.79;102336.81;5072959;28;19912;-88
2022/11/10 12:00:32;;;;;;;;;;;;;;;14.78;72.55;102334.19;5083453;28;19913;-85
2022/11/10 12:03:17;;;;;;;;;;;;;;;14.86;72.43;102332.94;5060008;28;19916;-88
2022/11/10 12:05:56;;;;;;;;;;;;;;;14.81;72.56;102336.09;5053516;28;20381;-88
2022/11/10 12:08:34;;;;;;;;;;;;;;;14.90;72.29;102327.84;5073583;28;20369;-87
2022/11/10 12:11:03;;;;;;;;;;;;;;;14.97;72.17;102335.31;5073258;28;20050;-88
2022/11/10 12:13:37;;;;;;;;;;;;;;;14.97;71.88;102338.84;5071417;28;19916;-89
2022/11/10 12:16:06;;;;;;;;;;;;;;;14.90;72.24;102335.75;5072863;28;19912;-89
2022/11/10 12:18:36;;;;;;;;;;;;;;;14.78;72.51;102328.91;5056392;28;19919;-88
2022/11/10 12:21:01;;;;;;;;;;;;;;;14.97;71.90;102336.22;5059425;28;19965;-89
2022/11/10 12:23:46;;;;;;;;;;;;;;;15.06;71.38;102344.66;5066023;28;20370;-89
2022/11/10 12:26:11;;;;;;;;;;;;;;;14.93;71.77;102341.22;5072919;28;19916;-88
2022/11/10 12:28:43;;;;;;;;;;;;;;;14.92;72.04;102337.69;5069936;28;20011;-88
2022/11/10 12:31:10;;;;;;;;;;;;;;;14.84;72.17;102338.91;5059110;28;19912;-88
2022/11/10 12:33:56;;;;;;;;;;;;;;;14.81;72.39;102341.34;5071508;28;19948;-88
2022/11/10 12:36:21;;;;;;;;;;;;;;;14.97;71.77;102338.84;5078629;28;19916;-89
2022/11/10 12:38:58;;;;;;;;;;;;;;;15.05;71.44;102347.22;5073613;28;19912;-87
2022/11/10 12:41:23;;;;;;;;;;;;;;;14.95;71.79;102329.06;5072959;28;20389;-88
2022/11/10 12:44:07;;;;;;;;;;;;;;;15.02;71.70;102340.03;5069989;28;20004;-87
2022/11/10 12:46:33;;;;;;;;;;;;;;;14.98;71.90;102343.28;5073021;28;19974;-86
2022/11/10 12:49:04;;;;;;;;;;;;;;;15.01;71.74;102348.75;5070406;28;20012;-88
2022/11/10 12:51:30;;;;;;;;;;;;;;;14.83;72.33;102350.25;5066214;28;19917;-84
2022/11/10 12:53:57;;;;;;;;;;;;;;;14.87;72.40;102352.25;5078845;28;20304;-89
2022/11/10 12:56:23;;;;;;;;;;;;;;;14.88;72.19;102348.81;5060271;28;19912;-88
2022/11/10 12:58:48;;;;;;;;;;;;;;;14.81;72.55;102344.88;5069688;28;19911;-89